Time;durP1;ratioP1;P1;durP2;ratioP2;P2;SDS_P1;SDS_P2;PMS_P1;PMS_P2;Temp;Humidity;BMP_temperature;BMP_pressure;BME280_temperature;BME280_humidity;BME280_pressure;Samples;Min_cycle;Max_cycle;Signal;HPM_P1;HPM_P2
2021/01/15 00:00:14;;;;;;;6.45;3.70;;;;;;;-0.08;69.48;94440.22;5056321;28;20278;-77
2021/01/15 00:02:40;;;;;;;6.63;3.65;;;;;;;-0.12;69.12;94445.63;5075062;28;20209;-77
2021/01/15 00:05:07;;;;;;;5.75;3.67;;;;;;;-0.02;69.71;94446.81;5074738;28;20225;-77
2021/01/15 00:07:34;;;;;;;4.03;3.67;;;;;;;0.02;69.86;94450.09;5056071;28;20202;-77
2021/01/15 00:10:00;;;;;;;11.10;4.53;;;;;;;-0.01;69.50;94451.88;5074252;28;20212;-77
2021/01/15 00:12:27;;;;;;;8.00;4.47;;;;;;;0.10;69.10;94456.53;5074451;28;20605;-77
2021/01/15 00:14:54;;;;;;;5.13;3.28;;;;;;;0.08;69.84;94458.34;5074473;28;20202;-77
2021/01/15 00:17:20;;;;;;;3.13;2.92;;;;;;;0.13;69.65;94468.44;5074197;28;20206;-77
2021/01/15 00:19:46;;;;;;;2.83;2.50;;;;;;;0.20;69.61;94470.59;5074195;28;20202;-77
2021/01/15 00:22:13;;;;;;;4.78;4.07;;;;;;;0.30;69.74;94473.56;5074124;28;20704;-77
2021/01/15 00:24:39;;;;;;;6.25;3.80;;;;;;;0.32;69.65;94469.16;5074128;28;20210;-77
2021/01/15 00:27:06;;;;;;;3.90;3.40;;;;;;;0.36;70.24;94465.50;5074252;28;20210;-77
2021/01/15 00:29:32;;;;;;;5.65;3.75;;;;;;;0.37;69.75;94461.16;5074284;28;20243;-78
2021/01/15 00:31:59;;;;;;;4.18;3.83;;;;;;;0.29;70.08;94464.16;5074007;28;20201;-77
2021/01/15 00:34:26;;;;;;;4.25;3.40;;;;;;;0.11;70.56;94452.19;5073964;28;20210;-77
2021/01/15 00:36:52;;;;;;;4.38;3.90;;;;;;;0.16;70.91;94460.53;5073815;28;20231;-77
2021/01/15 00:39:18;;;;;;;7.57;4.78;;;;;;;0.23;71.26;94467.03;5073920;28;20206;-77
2021/01/15 00:41:46;;;;;;;5.32;4.43;;;;;;;0.21;70.20;94468.84;5073779;28;20253;-77
2021/01/15 00:44:16;;;;;;;5.20;3.55;;;;;;;0.13;70.38;94456.38;5073834;28;20237;-77
2021/01/15 00:46:46;;;;;;;5.05;3.35;;;;;;;0.15;70.74;94464.03;5073963;28;20737;-77
2021/01/15 00:49:15;;;;;;;7.15;4.47;;;;;;;0.11;70.63;94471.09;5073778;28;20205;-77
2021/01/15 00:51:48;;;;;;;4.95;4.38;;;;;;;0.07;70.70;94473.91;5073734;28;20255;-77
2021/01/15 00:54:14;;;;;;;5.20;4.20;;;;;;;-0.22;70.62;94475.38;5073413;28;20200;-77
2021/01/15 00:56:41;;;;;;;3.15;2.95;;;;;;;-0.21;71.09;94471.88;5073880;28;20213;-78
2021/01/15 00:59:07;;;;;;;4.13;3.72;;;;;;;-0.27;71.70;94478.19;5073528;28;20202;-77
2021/01/15 01:01:37;;;;;;;6.30;4.30;;;;;;;-0.18;71.58;94482.88;5073451;28;20222;-77
2021/01/15 01:04:04;;;;;;;4.68;4.20;;;;;;;-0.15;71.56;94484.47;5037498;28;20241;-77
2021/01/15 01:06:31;;;;;;;6.47;4.40;;;;;;;-0.18;71.91;94482.88;5073368;28;20202;-77
2021/01/15 01:09:02;;;;;;;7.05;4.60;;;;;;;-0.22;71.54;94483.94;5073523;28;20713;-77
2021/01/15 01:11:30;;;;;;;7.05;5.35;;;;;;;-0.20;71.76;94482.13;5073082;28;20558;-77
2021/01/15 01:13:57;;;;;;;4.53;4.05;;;;;;;-0.13;71.93;94492.94;5073282;28;20658;-77
2021/01/15 01:16:25;;;;;;;4.85;4.10;;;;;;;-0.22;71.81;94486.50;5073312;28;20202;-77
2021/01/15 01:18:52;;;;;;;4.82;3.85;;;;;;;-0.23;71.81;94486.59;5073135;28;20240;-77
2021/01/15 01:21:19;;;;;;;6.18;3.67;;;;;;;-0.28;71.61;94489.41;5072907;28;20256;-78
2021/01/15 01:23:46;;;;;;;6.40;4.10;;;;;;;-0.36;71.82;94504.38;5073171;28;20210;-77
2021/01/15 01:26:13;;;;;;;5.25;4.53;;;;;;;-0.26;72.52;94504.78;5073149;28;20685;-77
2021/01/15 01:28:42;;;;;;;4.25;3.85;;;;;;;-0.19;71.98;94504.41;5072890;28;20199;-77
2021/01/15 01:31:08;;;;;;;6.22;4.32;;;;;;;-0.08;72.11;94509.84;5072809;28;20713;-77
2021/01/15 01:33:35;;;;;;;5.00;4.35;;;;;;;0.01;71.68;94495.69;5054333;28;20670;-78
2021/01/15 01:36:01;;;;;;;5.35;4.05;;;;;;;0.06;71.24;94490.28;5073024;28;20213;-77
2021/01/15 01:38:27;;;;;;;4.85;4.32;;;;;;;0.14;70.63;94503.63;5073064;28;20205;-77
2021/01/15 01:40:55;;;;;;;3.38;3.17;;;;;;;0.10;70.44;94502.13;5072781;28;20218;-77
2021/01/15 01:43:21;;;;;;;8.25;4.80;;;;;;;0.14;70.63;94517.34;5073021;28;20261;-77
2021/01/15 01:45:48;;;;;;;10.65;5.07;;;;;;;0.14;70.21;94514.78;5072920;28;20256;-77
2021/01/15 01:48:15;;;;;;;8.60;4.95;;;;;;;0.16;70.03;94522.44;5073185;28;20563;-77
2021/01/15 01:50:43;;;;;;;4.68;4.28;;;;;;;0.18;69.46;94518.88;5073030;28;20288;-77
2021/01/15 01:53:13;;;;;;;5.22;4.03;;;;;;;0.22;69.27;94514.38;5072905;28;20217;-77
2021/01/15 01:55:41;;;;;;;4.55;3.75;;;;;;;0.28;69.82;94522.63;5072915;28;20233;-78
2021/01/15 01:58:09;;;;;;;4.50;3.35;;;;;;;0.27;68.83;94517.56;5072826;28;20193;-77
2021/01/15 02:00:39;;;;;;;4.82;4.00;;;;;;;0.37;68.83;94521.34;5073062;28;20230;-78
2021/01/15 02:03:05;;;;;;;5.72;4.80;;;;;;;0.44;68.86;94522.69;5037201;28;20553;-77
2021/01/15 02:05:32;;;;;;;4.40;4.00;;;;;;;0.57;68.71;94513.41;5072847;28;20634;-77
2021/01/15 02:07:58;;;;;;;9.10;6.57;;;;;;;0.58;68.37;94512.50;5072802;28;20213;-77
2021/01/15 02:10:32;;;;;;;7.10;5.03;;;;;;;0.57;68.18;94505.66;5072656;28;20207;-78
2021/01/15 02:13:10;;;;;;;5.38;4.85;;;;;;;0.57;68.20;94515.97;5072770;28;20202;-78
2021/01/15 02:15:41;;;;;;;7.25;4.63;;;;;;;0.50;68.48;94511.22;5074516;28;20205;-78
2021/01/15 02:18:10;;;;;;;4.68;4.22;;;;;;;0.47;68.01;94507.06;5076584;28;20204;-77
2021/01/15 02:21:13;;;;;;;4.85;4.40;;;;;;;0.48;69.01;94513.88;5076472;28;20259;-77
2021/01/15 02:23:41;;;;;;;6.07;5.47;;;;;;;0.51;68.94;94518.06;5076760;28;20213;-77
2021/01/15 02:26:54;;;;;;;5.80;4.32;;;;;;;0.47;68.79;94522.53;5076636;28;20206;-77
2021/01/15 02:29:24;;;;;;;6.40;5.55;;;;;;;0.41;69.69;94522.88;5041295;28;20202;-78
2021/01/15 02:32:26;;;;;;;5.97;5.00;;;;;;;0.34;69.82;94526.69;5076128;28;20669;-77
2021/01/15 02:35:18;;;;;;;6.22;4.70;;;;;;;0.27;70.13;94535.63;5076302;28;20241;-78
2021/01/15 02:38:10;;;;;;;5.60;4.50;;;;;;;0.08;70.36;94540.06;4994765;28;20254;-77
2021/01/15 02:40:41;;;;;;;6.68;5.15;;;;;;;0.03;71.54;94526.56;4994919;28;20250;-78
2021/01/15 02:43:08;;;;;;;6.25;5.57;;;;;;;0.01;71.77;94538.69;4994571;28;20220;-77
2021/01/15 02:45:35;;;;;;;5.32;4.63;;;;;;;-0.11;71.83;94530.63;4978344;28;20653;-78
2021/01/15 02:48:04;;;;;;;5.95;4.20;;;;;;;-0.05;72.16;94529.50;4978423;28;20209;-77
2021/01/15 02:50:31;;;;;;;7.32;5.65;;;;;;;0.01;72.03;94529.22;4994398;28;20206;-78
2021/01/15 02:52:59;;;;;;;6.03;5.22;;;;;;;0.13;72.62;94530.34;4962420;28;20251;-78
2021/01/15 02:55:25;;;;;;;6.07;4.60;;;;;;;0.17;72.17;94539.59;4994516;28;20202;-78
2021/01/15 02:57:52;;;;;;;6.47;5.78;;;;;;;0.15;71.88;94542.25;4994500;28;20719;-77
2021/01/15 03:00:21;;;;;;;6.47;5.07;;;;;;;0.21;71.34;94543.69;4994383;28;20208;-78
2021/01/15 03:02:55;;;;;;;4.68;4.20;;;;;;;0.22;71.21;94547.94;4994331;28;20201;-78
2021/01/15 03:05:23;;;;;;;5.97;4.90;;;;;;;0.13;71.68;94546.66;4994202;28;20240;-77
2021/01/15 03:07:52;;;;;;;6.22;4.18;;;;;;;0.14;71.30;94547.47;4961480;28;20296;-78
2021/01/15 03:10:23;;;;;;;7.18;4.22;;;;;;;0.11;71.16;94540.72;4994309;28;20284;-78
2021/01/15 03:12:53;;;;;;;7.43;4.65;;;;;;;0.05;71.31;94542.78;4994032;28;20205;-77
2021/01/15 03:15:20;;;;;;;4.00;3.60;;;;;;;-0.09;71.29;94539.13;5053468;28;20199;-77
2021/01/15 03:17:49;;;;;;;5.22;4.57;;;;;;;-0.15;72.36;94549.75;5040112;28;20225;-77
2021/01/15 03:20:15;;;;;;;7.43;4.70;;;;;;;-0.10;71.67;94542.63;5075585;28;20198;-77
2021/01/15 03:22:45;;;;;;;6.75;5.55;;;;;;;-0.12;71.83;94543.59;5075114;28;20226;-77
2021/01/15 03:25:14;;;;;;;6.40;5.10;;;;;;;-0.13;72.20;94541.94;5075290;28;20209;-77
2021/01/15 03:27:46;;;;;;;4.63;4.18;;;;;;;-0.11;72.46;94540.94;5073990;28;20704;-77
2021/01/15 03:30:15;;;;;;;4.57;4.18;;;;;;;-0.11;71.55;94540.13;5075532;28;20288;-77
2021/01/15 03:32:42;;;;;;;7.38;4.68;;;;;;;-0.11;72.49;94533.22;5075373;28;20218;-77
2021/01/15 03:35:09;;;;;;;4.95;4.45;;;;;;;-0.14;72.47;94541.09;5075465;28;20194;-77
2021/01/15 03:37:35;;;;;;;7.82;5.80;;;;;;;-0.07;72.62;94546.78;5075162;28;20213;-78
2021/01/15 03:40:03;;;;;;;8.93;5.30;;;;;;;-0.16;72.28;94548.09;5074993;28;20214;-77
2021/01/15 03:42:30;;;;;;;6.25;5.10;;;;;;;-0.14;72.61;94535.94;5074830;28;20284;-77
2021/01/15 03:44:57;;;;;;;4.90;4.47;;;;;;;-0.13;72.69;94536.78;5056128;28;20543;-77
2021/01/15 03:47:23;;;;;;;7.63;5.47;;;;;;;-0.14;72.67;94542.84;5074954;28;20213;-77
2021/01/15 03:49:49;;;;;;;7.22;4.57;;;;;;;-0.07;73.08;94550.19;5075275;28;20198;-77
2021/01/15 03:52:16;;;;;;;6.70;4.60;;;;;;;-0.11;72.63;94543.53;5039589;28;20221;-77
2021/01/15 03:54:42;;;;;;;8.43;5.22;;;;;;;-0.10;72.72;94541.78;5006319;28;20202;-78
2021/01/15 03:57:08;;;;;;;6.85;5.20;;;;;;;-0.05;72.82;94543.22;5074469;28;20704;-77
2021/01/15 03:59:35;;;;;;;7.80;4.50;;;;;;;-0.07;73.19;94542.47;5074805;28;20198;-77
2021/01/15 04:02:02;;;;;;;7.88;5.05;;;;;;;-0.06;73.22;94538.16;5074664;28;20562;-77
2021/01/15 04:04:28;;;;;;;8.82;5.75;;;;;;;0.00;73.00;94545.59;5074415;28;20199;-77
2021/01/15 04:06:54;;;;;;;8.00;5.15;;;;;;;-0.01;73.59;94542.16;5074419;28;20209;-77
2021/01/15 04:09:21;;;;;;;5.55;5.03;;;;;;;0.01;73.33;94555.00;5039199;28;20205;-78
2021/01/15 04:11:47;;;;;;;4.70;4.30;;;;;;;-0.01;73.19;94561.94;5038905;28;20206;-77
2021/01/15 04:14:13;;;;;;;5.57;5.05;;;;;;;0.06;72.79;94562.50;5073898;28;20210;-77
2021/01/15 04:16:40;;;;;;;5.82;5.05;;;;;;;0.12;72.69;94567.34;5074067;28;20216;-77
2021/01/15 04:19:07;;;;;;;5.22;4.72;;;;;;;0.12;72.71;94567.34;5073897;28;20206;-77
2021/01/15 04:21:33;;;;;;;6.20;4.80;;;;;;;0.06;72.81;94568.50;5073995;28;20238;-77
2021/01/15 04:23:59;;;;;;;7.07;4.95;;;;;;;0.07;72.65;94577.06;5073820;28;20252;-77
2021/01/15 04:26:26;;;;;;;6.15;5.65;;;;;;;0.09;73.32;94570.09;5055348;28;20194;-77
2021/01/15 04:28:52;;;;;;;5.90;5.40;;;;;;;0.07;72.55;94574.50;5038526;28;20249;-77
2021/01/15 04:31:19;;;;;;;5.90;5.40;;;;;;;0.08;73.11;94581.31;5073743;28;20563;-77
2021/01/15 04:33:47;;;;;;;6.97;5.57;;;;;;;0.05;72.84;94586.63;5074107;28;20219;-78
2021/01/15 04:36:13;;;;;;;16.23;6.65;;;;;;;0.03;72.81;94578.13;5073927;28;20536;-77
2021/01/15 04:38:40;;;;;;;8.23;5.80;;;;;;;0.02;72.86;94589.38;5073799;28;20202;-77
2021/01/15 04:41:06;;;;;;;7.45;6.30;;;;;;;0.07;72.82;94579.66;5073933;28;20230;-77
2021/01/15 04:43:36;;;;;;;6.13;5.63;;;;;;;0.05;72.71;94584.88;5074246;28;20214;-77
2021/01/15 04:46:04;;;;;;;7.85;6.93;;;;;;;0.13;73.09;94582.75;5073462;28;20564;-77
2021/01/15 04:48:32;;;;;;;7.35;6.15;;;;;;;0.12;72.72;94583.66;5073530;28;20657;-78
2021/01/15 04:51:02;;;;;;;9.10;6.18;;;;;;;0.13;72.85;94579.34;5073661;28;20657;-77
2021/01/15 04:53:30;;;;;;;6.78;5.20;;;;;;;0.07;72.24;94590.81;5073529;28;20198;-77
2021/01/15 04:55:59;;;;;;;8.43;6.40;;;;;;;0.05;72.90;94587.47;5038877;28;20198;-77
2021/01/15 04:58:27;;;;;;;10.35;6.78;;;;;;;0.09;73.07;94593.31;5073832;28;20228;-78
2021/01/15 05:00:57;;;;;;;8.65;6.15;;;;;;;0.08;73.06;94600.22;5073506;28;20222;-77
2021/01/15 05:03:24;;;;;;;7.40;5.30;;;;;;;0.04;73.32;94590.13;5073523;28;20201;-77
2021/01/15 05:05:58;;;;;;;9.75;5.85;;;;;;;0.02;73.11;94594.53;5073623;28;20202;-77
2021/01/15 05:08:28;;;;;;;9.30;6.03;;;;;;;-0.07;73.77;94604.34;5054756;28;20262;-77
2021/01/15 05:10:55;;;;;;;9.38;7.47;;;;;;;0.04;74.13;94598.69;5073612;28;20248;-77
2021/01/15 05:13:21;;;;;;;11.80;7.05;;;;;;;0.04;73.31;94595.28;5073719;28;20228;-78
2021/01/15 05:15:49;;;;;;;10.13;7.07;;;;;;;0.07;73.15;94605.44;5073341;28;20207;-78
2021/01/15 05:18:19;;;;;;;8.25;6.68;;;;;;;0.15;73.61;94605.91;5073391;28;20194;-77
2021/01/15 05:20:47;;;;;;;8.68;6.20;;;;;;;0.20;73.23;94615.06;5072816;28;20232;-77
2021/01/15 05:23:15;;;;;;;5.50;5.00;;;;;;;0.21;72.69;94610.75;5072810;28;20222;-77
2021/01/15 05:25:44;;;;;;;15.52;6.13;;;;;;;0.11;72.98;94619.88;5073157;28;20210;-77
2021/01/15 05:28:12;;;;;;;15.10;7.18;;;;;;;0.15;72.60;94611.91;5073182;28;20207;-77
2021/01/15 05:30:41;;;;;;;8.13;7.32;;;;;;;0.19;73.19;94621.16;5037833;28;20560;-77
2021/01/15 05:33:13;;;;;;;12.25;7.65;;;;;;;0.20;72.62;94621.97;5054707;28;20206;-77
2021/01/15 05:35:45;;;;;;;18.23;10.35;;;;;;;0.24;73.28;94623.50;5072957;28;20209;-78
2021/01/15 05:38:15;;;;;;;13.07;9.25;;;;;;;0.26;72.59;94627.66;5073183;28;20214;-77
2021/01/15 05:40:44;;;;;;;10.68;8.55;;;;;;;0.24;73.21;94626.06;5072970;28;20300;-78
2021/01/15 05:43:22;;;;;;;10.35;6.63;;;;;;;0.21;72.91;94639.13;5072945;28;20206;-77
2021/01/15 05:46:14;;;;;;;8.88;7.97;;;;;;;0.15;73.54;94634.28;5073341;28;20205;-77
2021/01/15 05:48:45;;;;;;;11.98;8.90;;;;;;;0.11;73.01;94637.91;4991019;28;20205;-77
2021/01/15 05:51:28;;;;;;;13.13;9.38;;;;;;;0.08;73.74;94648.38;4974634;28;20200;-77
2021/01/15 05:53:55;;;;;;;15.32;8.77;;;;;;;0.16;73.76;94651.44;4991167;28;20575;-78
2021/01/15 05:56:23;;;;;;;13.80;7.95;;;;;;;0.24;73.39;94649.31;4991586;28;20604;-77
2021/01/15 05:59:03;;;;;;;10.25;7.68;;;;;;;0.26;73.16;94655.22;4991250;28;20214;-77
2021/01/15 06:01:41;;;;;;;10.85;7.95;;;;;;;0.29;73.34;94658.50;4991375;28;20229;-77
2021/01/15 06:04:07;;;;;;;10.60;8.30;;;;;;;0.26;73.21;94663.78;4991336;28;20215;-77
2021/01/15 06:06:36;;;;;;;12.48;8.77;;;;;;;0.32;73.75;94664.44;4991576;28;20263;-77
2021/01/15 06:09:03;;;;;;;9.27;7.45;;;;;;;0.30;73.23;94660.19;4991417;28;20340;-77
2021/01/15 06:11:31;;;;;;;11.63;7.90;;;;;;;0.29;73.13;94671.41;4991412;28;20205;-77
2021/01/15 06:13:57;;;;;;;13.50;9.30;;;;;;;0.39;72.70;94670.97;4974718;28;20313;-77
2021/01/15 06:16:24;;;;;;;11.05;6.95;;;;;;;0.40;72.18;94677.78;4958914;28;20550;-77
2021/01/15 06:18:58;;;;;;;13.45;7.07;;;;;;;0.37;72.43;94675.34;4991172;28;20591;-77
2021/01/15 06:21:31;;;;;;;7.95;7.15;;;;;;;0.31;72.43;94689.41;4990977;28;20247;-77
2021/01/15 06:24:04;;;;;;;8.25;5.43;;;;;;;0.18;73.26;94678.81;4992359;28;20752;-76
2021/01/15 06:26:38;;;;;;;9.60;7.05;;;;;;;0.17;72.71;94691.78;5072712;28;20213;-78
2021/01/15 06:29:06;;;;;;;8.70;6.38;;;;;;;0.23;73.55;94694.91;5072493;28;20725;-78
2021/01/15 06:31:43;;;;;;;15.90;6.13;;;;;;;0.26;72.59;94702.50;5072591;28;20759;-77
2021/01/15 06:34:09;;;;;;;10.25;6.45;;;;;;;0.14;72.78;94700.50;5072255;28;20199;-77
2021/01/15 06:36:49;;;;;;;7.00;6.30;;;;;;;0.12;72.79;94701.50;5072552;28;20211;-76
2021/01/15 06:39:17;;;;;;;13.70;7.75;;;;;;;0.16;73.12;94711.59;5072635;28;20199;-77
2021/01/15 06:41:44;;;;;;;14.75;8.70;;;;;;;0.24;73.26;94711.22;5072694;28;20285;-76
2021/01/15 06:44:12;;;;;;;11.63;6.90;;;;;;;0.23;72.94;94714.72;5072569;28;20300;-77
2021/01/15 06:46:46;;;;;;;9.50;6.85;;;;;;;0.25;72.80;94726.63;5072383;28;20225;-77
2021/01/15 06:49:17;;;;;;;18.92;9.45;;;;;;;0.32;72.79;94722.03;5072263;28;20202;-78
2021/01/15 06:51:54;;;;;;;12.32;9.70;;;;;;;0.39;72.69;94730.31;5072305;28;20219;-77
2021/01/15 06:54:24;;;;;;;22.92;11.95;;;;;;;0.45;72.43;94741.16;5071964;28;20201;-77
2021/01/15 06:57:11;;;;;;;29.77;13.50;;;;;;;0.59;72.70;94743.09;5072460;28;20210;-77
2021/01/15 06:59:38;;;;;;;20.20;12.20;;;;;;;0.67;71.59;94732.41;5072095;28;20243;-77
2021/01/15 07:02:31;;;;;;;19.65;11.07;;;;;;;0.70;71.39;94742.56;5074303;28;20230;-79
2021/01/15 07:05:01;;;;;;;16.92;10.13;;;;;;;0.74;71.01;94749.25;5075994;28;20202;-77
2021/01/15 07:07:29;;;;;;;16.40;9.52;;;;;;;0.73;70.59;94763.06;5075280;28;20252;-80
2021/01/15 07:09:57;;;;;;;11.88;8.43;;;;;;;0.71;72.17;94767.47;5075419;28;20202;-77
2021/01/15 07:12:24;;;;;;;13.95;9.48;;;;;;;0.60;70.84;94760.25;5075443;28;20654;-77
2021/01/15 07:14:56;;;;;;;21.48;11.88;;;;;;;0.60;70.55;94766.25;5073884;28;20445;-79
2021/01/15 07:17:35;;;;;;;24.50;12.25;;;;;;;0.61;70.46;94767.94;5066692;28;20317;-78
2021/01/15 07:20:10;;;;;;;20.33;10.40;;;;;;;0.55;71.51;94767.38;5058574;28;20673;-78
2021/01/15 07:22:42;;;;;;;15.65;8.18;;;;;;;0.51;72.75;94771.84;5036186;28;20234;-77
2021/01/15 07:25:11;;;;;;;12.57;8.88;;;;;;;0.50;72.33;94779.66;5054841;28;20207;-77
2021/01/15 07:27:39;;;;;;;9.70;7.35;;;;;;;0.53;72.63;94785.50;5054975;28;20199;-78
2021/01/15 07:30:12;;;;;;;15.20;9.98;;;;;;;0.52;72.62;94783.84;5054839;28;20218;-77
2021/01/15 07:32:39;;;;;;;9.18;6.28;;;;;;;0.44;71.93;94790.28;5054684;28;20661;-77
2021/01/15 07:35:07;;;;;;;15.90;7.65;;;;;;;0.51;71.82;94789.91;5054973;28;20241;-78
2021/01/15 07:37:34;;;;;;;7.07;5.80;;;;;;;0.54;71.74;94791.50;5054897;28;20671;-77
2021/01/15 07:40:02;;;;;;;11.02;7.50;;;;;;;0.50;72.16;94798.56;5019860;28;20229;-77
2021/01/15 07:42:49;;;;;;;11.20;6.65;;;;;;;0.66;72.64;94790.13;5055291;28;20231;-78
2021/01/15 07:45:52;;;;;;;14.50;8.90;;;;;;;0.72;71.81;94794.97;5054851;28;20624;-78
2021/01/15 07:48:20;;;;;;;11.10;8.63;;;;;;;0.77;71.58;94793.00;5055050;28;20195;-78
2021/01/15 07:50:48;;;;;;;35.95;7.00;;;;;;;0.60;70.81;94797.25;5019531;28;20651;-78
2021/01/15 07:53:18;;;;;;;7.22;6.55;;;;;;;0.54;70.84;94791.50;5072685;28;20201;-77
2021/01/15 07:55:46;;;;;;;13.00;7.40;;;;;;;0.55;71.04;94804.34;5074982;28;20201;-77
2021/01/15 07:58:13;;;;;;;14.27;8.40;;;;;;;0.60;71.17;94806.75;5074769;28;20198;-77
2021/01/15 08:00:41;;;;;;;7.47;6.00;;;;;;;0.65;71.21;94811.69;5074781;28;20202;-77
2021/01/15 08:03:08;;;;;;;8.00;6.15;;;;;;;0.62;71.99;94812.66;5074467;28;20206;-77
2021/01/15 08:05:34;;;;;;;6.53;5.50;;;;;;;0.58;71.24;94806.81;5074885;28;20206;-77
2021/01/15 08:08:08;;;;;;;7.95;6.60;;;;;;;0.46;71.14;94815.13;5074444;28;20558;-77
2021/01/15 08:10:45;;;;;;;9.48;6.70;;;;;;;0.44;71.33;94810.94;5074425;28;20296;-77
2021/01/15 08:13:20;;;;;;;9.63;7.60;;;;;;;0.50;71.33;94813.22;5073852;28;20205;-77
2021/01/15 08:15:47;;;;;;;18.15;9.57;;;;;;;0.52;71.72;94809.66;5063929;28;20692;-77
2021/01/15 08:18:14;;;;;;;10.25;7.45;;;;;;;0.58;71.10;94819.72;5054079;28;20207;-77
2021/01/15 08:20:45;;;;;;;11.15;6.82;;;;;;;0.61;70.39;94817.00;5066589;28;20731;-77
2021/01/15 08:23:20;;;;;;;7.00;6.07;;;;;;;0.63;70.68;94822.09;5054065;28;20312;-77
2021/01/15 08:25:48;;;;;;;7.60;6.35;;;;;;;0.67;70.61;94823.59;5054667;28;20265;-77
2021/01/15 08:28:14;;;;;;;10.07;6.25;;;;;;;0.76;70.76;94820.56;5053917;28;20206;-78
2021/01/15 08:30:55;;;;;;;10.27;7.25;;;;;;;0.80;70.40;94822.09;5054080;28;20196;-77
2021/01/15 08:33:22;;;;;;;25.65;12.25;;;;;;;0.92;70.99;94834.44;5019184;28;20202;-77
2021/01/15 08:35:53;;;;;;;31.00;16.60;;;;;;;0.98;69.80;94833.28;5054230;28;20230;-78
2021/01/15 08:38:28;;;;;;;29.33;14.23;;;;;;;0.95;68.89;94832.63;5054298;28;20196;-77
2021/01/15 08:40:56;;;;;;;28.75;15.07;;;;;;;0.91;69.08;94829.34;5053941;28;20557;-77
2021/01/15 08:43:24;;;;;;;16.67;11.25;;;;;;;0.89;68.98;94829.41;5053927;28;20207;-77
2021/01/15 08:45:52;;;;;;;27.58;14.70;;;;;;;0.93;69.20;94824.94;5054090;28;20614;-77
2021/01/15 08:48:20;;;;;;;35.70;18.77;;;;;;;0.90;69.00;94831.09;5053948;28;20329;-78
2021/01/15 08:50:46;;;;;;;12.65;9.32;;;;;;;0.90;68.92;94831.09;5035272;28;20200;-77
2021/01/15 08:53:17;;;;;;;19.90;10.20;;;;;;;0.92;68.56;94836.19;5053504;28;20210;-77
2021/01/15 08:55:46;;;;;;;19.65;12.30;;;;;;;0.95;68.56;94835.19;5053909;28;20283;-78
2021/01/15 08:58:13;;;;;;;20.02;10.95;;;;;;;1.06;68.83;94833.75;5053731;28;20252;-77
2021/01/15 09:00:39;;;;;;;7.68;6.88;;;;;;;1.13;67.34;94839.44;5053813;28;20238;-77
2021/01/15 09:03:10;;;;;;;22.92;10.80;;;;;;;1.26;67.51;94831.94;5053429;28;20241;-77
2021/01/15 09:05:40;;;;;;;15.35;8.80;;;;;;;1.33;66.86;94834.16;5053354;28;20207;-77
2021/01/15 09:08:08;;;;;;;16.40;10.13;;;;;;;1.38;66.52;94837.31;5053388;28;20244;-77
2021/01/15 09:10:35;;;;;;;18.98;8.43;;;;;;;1.44;65.80;94816.34;5034418;28;20238;-78
2021/01/15 09:13:04;;;;;;;7.75;5.97;;;;;;;1.44;66.03;94815.50;5053645;28;20256;-78
2021/01/15 09:15:31;;;;;;;13.10;7.90;;;;;;;1.44;65.27;94821.50;5022730;28;20209;-78
2021/01/15 09:17:58;;;;;;;16.35;8.50;;;;;;;1.53;65.61;94818.47;5053167;28;20199;-78
2021/01/15 09:20:26;;;;;;;14.38;9.57;;;;;;;1.76;65.61;94821.63;5053426;28;20241;-78
2021/01/15 09:22:53;;;;;;;11.02;8.50;;;;;;;1.97;64.77;94815.31;5053479;28;20280;-78
2021/01/15 09:25:20;;;;;;;9.20;6.80;;;;;;;2.05;64.06;94812.34;5051068;28;20226;-78
2021/01/15 09:27:47;;;;;;;8.18;6.32;;;;;;;1.96;62.63;94802.47;5053306;28;20199;-78
2021/01/15 09:30:15;;;;;;;9.63;8.18;;;;;;;1.82;63.32;94808.38;5053718;28;20270;-78
2021/01/15 09:32:43;;;;;;;7.57;5.75;;;;;;;1.75;62.96;94800.13;5052974;28;20207;-78
2021/01/15 09:35:11;;;;;;;10.98;5.72;;;;;;;1.67;62.78;94804.00;5055405;28;20226;-78
2021/01/15 09:37:39;;;;;;;6.88;5.85;;;;;;;1.67;62.27;94796.22;5060478;28;20246;-78
2021/01/15 09:40:07;;;;;;;7.05;6.15;;;;;;;1.81;63.15;94799.78;5054618;28;20213;-77
2021/01/15 09:42:34;;;;;;;18.38;9.65;;;;;;;2.09;63.25;94791.41;5052975;28;20276;-77
2021/01/15 09:45:00;;;;;;;14.45;7.50;;;;;;;2.39;62.51;94799.28;5053631;28;20202;-77
2021/01/15 09:47:30;;;;;;;7.68;5.20;;;;;;;2.58;60.10;94786.13;5052565;28;20202;-78
2021/01/15 09:49:56;;;;;;;6.30;5.30;;;;;;;2.54;59.18;94789.81;5052545;28;20202;-78
2021/01/15 09:52:22;;;;;;;7.13;6.38;;;;;;;2.47;59.53;94789.31;5052394;28;20510;-77
2021/01/15 09:54:49;;;;;;;6.37;5.77;;;;;;;2.31;59.96;94790.22;5052698;28;20208;-77
2021/01/15 09:57:16;;;;;;;10.10;6.53;;;;;;;2.17;60.31;94783.22;5052796;28;20449;-78
2021/01/15 09:59:42;;;;;;;5.80;5.20;;;;;;;2.11;59.81;94789.56;5052437;28;20921;-77
2021/01/15 10:02:08;;;;;;;10.85;6.18;;;;;;;2.11;60.67;94793.91;5052291;28;20542;-78
2021/01/15 10:04:35;;;;;;;11.60;5.43;;;;;;;2.11;59.70;94786.16;5052845;28;20265;-78
2021/01/15 10:07:01;;;;;;;8.77;5.37;;;;;;;2.09;59.19;94782.81;5052229;28;20210;-78
2021/01/15 10:09:27;;;;;;;16.10;7.65;;;;;;;1.96;59.99;94769.66;5052446;28;20475;-78
2021/01/15 10:11:55;;;;;;;8.52;5.47;;;;;;;1.91;59.97;94773.41;5052656;28;20230;-78
2021/01/15 10:14:21;;;;;;;16.52;7.03;;;;;;;1.84;60.85;94773.75;5052613;28;20249;-78
2021/01/15 10:16:50;;;;;;;6.45;5.75;;;;;;;1.87;60.87;94772.75;5052282;28;20203;-78
2021/01/15 10:19:17;;;;;;;9.73;6.75;;;;;;;1.89;61.38;94773.50;5052694;28;20198;-78
2021/01/15 10:21:44;;;;;;;10.38;6.85;;;;;;;1.74;61.00;94761.41;5052317;28;20879;-78
2021/01/15 10:24:13;;;;;;;19.70;10.98;;;;;;;1.52;62.38;94752.16;5052910;28;20206;-78
2021/01/15 10:26:40;;;;;;;26.55;12.25;;;;;;;1.42;63.20;94755.28;5052182;28;20669;-78
2021/01/15 10:29:10;;;;;;;11.68;7.97;;;;;;;1.32;63.02;94744.59;5052547;28;20211;-77
2021/01/15 10:31:42;;;;;;;10.10;7.03;;;;;;;1.39;62.92;94745.09;5052171;28;20209;-78
2021/01/15 10:34:08;;;;;;;11.05;8.63;;;;;;;1.57;63.39;94749.34;5052715;28;20613;-78
2021/01/15 10:36:35;;;;;;;12.70;7.50;;;;;;;1.81;63.41;94742.03;5053882;28;20583;-78
2021/01/15 10:39:01;;;;;;;77.85;37.15;;;;;;;2.04;62.50;94738.22;5055948;28;20205;-78
2021/01/15 10:41:30;;;;;;;15.80;6.65;;;;;;;2.22;60.91;94736.38;5056935;28;20228;-78
2021/01/15 10:43:56;;;;;;;7.17;6.03;;;;;;;2.33;59.86;94737.47;5075932;28;20297;-78
2021/01/15 10:46:30;;;;;;;11.13;5.70;;;;;;;2.25;59.17;94746.56;5075667;28;20448;-78
2021/01/15 10:48:56;;;;;;;7.80;5.33;;;;;;;2.12;59.75;94736.06;5076088;28;20436;-78
2021/01/15 10:51:22;;;;;;;8.50;6.33;;;;;;;2.13;59.53;94728.19;5075758;28;20505;-77
2021/01/15 10:53:49;;;;;;;17.10;7.53;;;;;;;2.06;59.48;94732.06;5075807;28;20452;-78
2021/01/15 10:56:15;;;;;;;14.05;7.05;;;;;;;2.08;60.16;94731.97;5040707;28;20525;-77
2021/01/15 10:58:41;;;;;;;8.67;6.70;;;;;;;2.06;60.75;94728.63;5075884;28;20206;-78
2021/01/15 11:01:08;;;;;;;38.33;10.27;;;;;;;2.05;61.58;94725.22;5075982;28;20509;-77
2021/01/15 11:03:35;;;;;;;12.70;7.40;;;;;;;1.99;62.07;94720.34;5076131;28;20916;-78
2021/01/15 11:06:01;;;;;;;17.65;8.68;;;;;;;2.00;62.10;94721.16;5075545;28;20460;-78
2021/01/15 11:08:28;;;;;;;10.20;7.87;;;;;;;1.97;61.59;94726.50;5075511;28;20202;-77
2021/01/15 11:10:54;;;;;;;7.13;6.32;;;;;;;1.99;63.30;94693.63;5075875;28;20539;-78
2021/01/15 11:13:20;;;;;;;8.30;6.20;;;;;;;2.07;59.40;94709.59;5075520;28;20200;-78
2021/01/15 11:15:47;;;;;;;11.07;6.23;;;;;;;2.03;57.92;94703.75;5065261;28;20441;-77
2021/01/15 11:18:13;;;;;;;10.68;7.70;;;;;;;2.07;57.85;94709.59;5055380;28;20441;-78
2021/01/15 11:20:43;;;;;;;9.43;7.53;;;;;;;2.06;57.62;94705.34;5055644;28;20595;-78
2021/01/15 11:23:10;;;;;;;10.20;6.68;;;;;;;2.04;57.84;94700.25;5055620;28;20238;-77
2021/01/15 11:25:36;;;;;;;12.73;7.55;;;;;;;2.10;57.89;94694.72;5055234;28;20199;-77
2021/01/15 11:28:03;;;;;;;21.40;8.10;;;;;;;2.20;57.60;94695.03;5055411;28;20652;-78
2021/01/15 11:30:29;;;;;;;8.82;6.13;;;;;;;2.22;55.88;94697.56;5055188;28;20549;-78
2021/01/15 11:32:57;;;;;;;11.65;7.97;;;;;;;2.12;59.02;94694.63;5055230;28;20202;-77
2021/01/15 11:35:23;;;;;;;12.90;8.47;;;;;;;2.20;59.12;94687.28;5020585;28;20199;-78
2021/01/15 11:37:57;;;;;;;11.20;7.15;;;;;;;2.23;56.92;94688.84;5055085;28;20480;-78
2021/01/15 11:40:25;;;;;;;9.32;6.50;;;;;;;2.13;56.33;94685.97;5021799;28;20675;-78
2021/01/15 11:42:55;;;;;;;8.85;6.35;;;;;;;2.15;56.09;94689.28;5055011;28;20260;-78
2021/01/15 11:45:21;;;;;;;9.40;6.83;;;;;;;2.27;56.48;94682.59;5058408;28;20202;-78